createdAt,value
2023-04-21T00:00:09.725Z,52.81
2023-04-21T00:02:42.376Z,52.89
2023-04-21T00:05:13.133Z,53.27
2023-04-21T00:07:42.385Z,53.86
2023-04-21T00:10:12.762Z,53.79
2023-04-21T00:12:41.977Z,53.91
2023-04-21T00:15:11.155Z,54.15
2023-04-21T00:17:40.214Z,53.86
2023-04-21T00:20:11.133Z,54.06
2023-04-21T00:22:39.932Z,53.76
2023-04-21T00:25:09.115Z,53.60
2023-04-21T00:27:38.107Z,53.42
2023-04-21T00:30:07.577Z,53.31
2023-04-21T00:32:39.359Z,53.71
2023-04-21T00:35:09.204Z,53.81
2023-04-21T00:37:38.515Z,53.70
2023-04-21T00:40:08.142Z,53.68
2023-04-21T00:42:37.084Z,53.74
2023-04-21T00:45:06.479Z,53.65
2023-04-21T00:47:35.610Z,53.82
2023-04-21T00:50:05.147Z,53.61
2023-04-21T00:52:35.869Z,53.57
2023-04-21T00:55:05.645Z,53.83
2023-04-21T00:57:36.600Z,53.32
2023-04-21T01:00:09.572Z,52.90
2023-04-21T01:02:40.843Z,52.66
2023-04-21T01:05:10.609Z,52.47
2023-04-21T01:07:40.966Z,52.32
2023-04-21T01:10:10.192Z,52.95
2023-04-21T01:12:46.820Z,53.37
2023-04-21T01:15:17.899Z,53.46
2023-04-21T01:17:46.777Z,53.72
2023-04-21T01:20:16.533Z,54.32
2023-04-21T01:22:45.890Z,55.08
2023-04-21T01:25:14.703Z,55.17
2023-04-21T01:27:43.477Z,54.74
2023-04-21T01:30:12.480Z,54.87
2023-04-21T01:32:41.518Z,54.95
2023-04-21T01:35:10.836Z,54.76
2023-04-21T01:37:40.967Z,54.71
2023-04-21T01:40:11.255Z,54.47
2023-04-21T01:42:43.908Z,54.64
2023-04-21T01:45:13.772Z,54.59
2023-04-21T01:47:42.653Z,54.75
2023-04-21T01:50:11.923Z,54.64
2023-04-21T01:52:43.975Z,54.43
2023-04-21T01:55:12.809Z,54.33
2023-04-21T01:57:42.253Z,54.74
2023-04-21T02:00:12.731Z,54.06
2023-04-21T02:02:44.525Z,52.19
2023-04-21T02:05:15.540Z,50.19
2023-04-21T02:07:44.379Z,49.31
2023-04-21T02:10:13.600Z,48.08
2023-04-21T02:12:45.277Z,46.79
2023-04-21T02:15:14.121Z,45.27
2023-04-21T02:18:02.860Z,47.10
2023-04-21T02:20:31.832Z,47.97
2023-04-21T02:23:00.683Z,48.73
2023-04-21T02:25:30.677Z,49.39
2023-04-21T02:27:59.518Z,49.99
2023-04-21T02:30:29.344Z,47.44
2023-04-21T02:32:58.504Z,45.22
2023-04-21T02:35:27.961Z,43.71
2023-04-21T02:37:56.743Z,43.96
2023-04-21T02:40:25.516Z,45.62
2023-04-21T02:42:54.459Z,46.43
2023-04-21T02:45:23.300Z,47.61
2023-04-21T02:47:52.926Z,48.02
2023-04-21T02:50:21.976Z,48.46
2023-04-21T02:52:50.812Z,49.20
2023-04-21T02:55:19.640Z,50.68
2023-04-21T02:57:49.040Z,50.84
2023-04-21T03:00:18.848Z,51.64
2023-04-21T03:02:48.048Z,52.27
2023-04-21T03:05:18.388Z,52.21
2023-04-21T03:07:47.833Z,52.30
2023-04-21T03:10:16.588Z,51.58
2023-04-21T03:12:45.327Z,51.44
2023-04-21T03:15:14.934Z,52.03
2023-04-21T03:17:44.693Z,52.39
2023-04-21T03:20:13.640Z,52.47
2023-04-21T03:22:42.628Z,51.94
2023-04-21T03:25:12.524Z,52.14
2023-04-21T03:27:41.449Z,51.25
2023-04-21T03:30:11.220Z,49.36
2023-04-21T03:32:40.059Z,47.80
2023-04-21T03:35:09.004Z,47.41
2023-04-21T03:37:37.928Z,45.74
2023-04-21T03:40:07.818Z,45.29
2023-04-21T03:42:36.913Z,46.17
2023-04-21T03:45:08.504Z,44.45
2023-04-21T03:47:38.141Z,42.74
2023-04-21T03:50:07.597Z,43.04
2023-04-21T03:52:36.520Z,41.82
2023-04-21T03:55:05.916Z,40.54
2023-04-21T03:57:34.710Z,41.09
2023-04-21T04:00:05.943Z,41.49
2023-04-21T04:02:44.431Z,42.08
2023-04-21T04:05:13.637Z,42.84
2023-04-21T04:07:42.699Z,44.17
2023-04-21T04:10:12.504Z,43.39
2023-04-21T04:12:41.453Z,39.45
2023-04-21T04:15:10.553Z,37.88
2023-04-21T04:17:39.498Z,38.30
2023-04-21T04:20:09.161Z,39.57
2023-04-21T04:22:38.008Z,39.71
2023-04-21T04:25:07.019Z,38.30
2023-04-21T04:27:36.249Z,38.09
2023-04-21T04:30:06.293Z,38.71
2023-04-21T04:32:35.232Z,39.93
2023-04-21T04:35:04.572Z,40.65
2023-04-21T04:37:35.105Z,39.56
2023-04-21T04:40:10.599Z,38.13
2023-04-21T04:42:40.723Z,36.92
2023-04-21T04:45:10.161Z,35.88
2023-04-21T04:47:39.114Z,35.53
2023-04-21T04:50:08.345Z,32.68
2023-04-21T04:52:37.401Z,33.16
2023-04-21T04:55:06.607Z,35.76
2023-04-21T04:57:35.594Z,35.44
2023-04-21T05:00:09.026Z,35.16
2023-04-21T05:02:39.628Z,35.19
2023-04-21T05:05:08.922Z,35.49
2023-04-21T05:07:37.921Z,36.92
2023-04-21T05:10:07.086Z,38.31
2023-04-21T05:12:35.963Z,40.35
2023-04-21T05:15:06.327Z,40.86
2023-04-21T05:17:35.569Z,38.85
2023-04-21T05:20:08.763Z,36.62
2023-04-21T05:22:41.685Z,35.09
2023-04-21T05:25:18.236Z,33.38
2023-04-21T05:27:47.098Z,32.24
2023-04-21T05:30:15.974Z,30.33
2023-04-21T05:32:44.938Z,30.92
2023-04-21T05:35:13.837Z,32.57
2023-04-21T05:37:42.691Z,32.94
2023-04-21T05:40:11.908Z,33.11
2023-04-21T05:42:40.879Z,34.22
2023-04-21T05:45:09.752Z,34.22
2023-04-21T05:47:39.639Z,35.80
2023-04-21T05:50:09.331Z,34.76
2023-04-21T05:52:38.574Z,33.30
2023-04-21T05:55:07.925Z,30.33
2023-04-21T05:57:36.943Z,29.21
2023-04-21T06:00:07.846Z,30.56
2023-04-21T06:02:37.230Z,31.75
2023-04-21T06:05:07.176Z,32.29
2023-04-21T06:07:37.955Z,32.81
2023-04-21T06:10:07.791Z,33.99
2023-04-21T06:12:36.692Z,34.52
2023-04-21T06:15:06.400Z,35.53
2023-04-21T06:17:35.218Z,34.79
2023-04-21T06:20:04.972Z,32.72
2023-04-21T06:22:34.236Z,31.73
2023-04-21T06:25:03.066Z,31.19
2023-04-21T06:27:32.339Z,32.95
2023-04-21T06:30:01.136Z,32.01
2023-04-21T06:32:33.467Z,30.67
2023-04-21T06:35:02.673Z,29.85
2023-04-21T06:37:33.675Z,29.80
2023-04-21T06:40:02.607Z,29.25
2023-04-21T06:42:32.685Z,28.21
2023-04-21T06:45:01.614Z,27.21
2023-04-21T06:47:34.685Z,26.70
2023-04-21T06:50:04.066Z,26.54
2023-04-21T06:52:33.129Z,25.38
2023-04-21T06:55:02.112Z,25.63
2023-04-21T06:57:32.662Z,24.27
2023-04-21T07:00:01.579Z,24.64
2023-04-21T07:02:34.951Z,25.15
2023-04-21T07:05:04.646Z,26.85
2023-04-21T07:07:34.137Z,28.30
2023-04-21T07:10:03.212Z,29.29
2023-04-21T07:12:33.013Z,29.72
2023-04-21T07:15:02.029Z,29.77
2023-04-21T07:17:33.239Z,29.30
2023-04-21T07:20:02.374Z,29.16
2023-04-21T07:22:32.137Z,28.99
2023-04-21T07:25:01.146Z,29.49
2023-04-21T07:27:30.681Z,30.71
2023-04-21T07:29:59.602Z,30.60
2023-04-21T07:32:28.497Z,29.57
2023-04-21T07:34:57.489Z,28.46
2023-04-21T07:37:27.702Z,28.59
2023-04-21T07:39:56.558Z,28.46
2023-04-21T07:42:27.375Z,29.18
2023-04-21T07:44:56.773Z,29.93
2023-04-21T07:47:25.799Z,30.67
2023-04-21T07:49:54.713Z,30.93
2023-04-21T07:52:23.815Z,30.54
2023-04-21T07:54:52.809Z,30.55
2023-04-21T07:57:21.790Z,30.69
2023-04-21T07:59:50.811Z,29.79
2023-04-21T08:02:20.870Z,28.55
2023-04-21T08:04:50.295Z,27.73
2023-04-21T08:07:19.164Z,26.64
2023-04-21T08:09:48.055Z,25.94
2023-04-21T08:12:17.016Z,26.43
2023-04-21T08:14:46.038Z,27.08
2023-04-21T08:17:15.159Z,28.56
2023-04-21T08:19:44.251Z,29.19
2023-04-21T08:22:13.106Z,29.13
2023-04-21T08:24:41.875Z,28.06
2023-04-21T08:27:10.876Z,28.71
2023-04-21T08:29:39.684Z,28.70
2023-04-21T08:32:08.804Z,29.14
2023-04-21T08:34:37.869Z,29.61
2023-04-21T08:37:06.706Z,29.57
2023-04-21T08:39:35.620Z,29.94
2023-04-21T08:42:05.713Z,29.72
2023-04-21T08:44:34.528Z,30.07
2023-04-21T08:47:06.952Z,30.56
2023-04-21T08:49:38.036Z,30.51
2023-04-21T08:52:07.255Z,29.89
2023-04-21T08:54:39.686Z,30.25
2023-04-21T08:57:15.346Z,30.02
2023-04-21T08:59:46.088Z,29.90
2023-04-21T09:02:20.597Z,30.02
2023-04-21T09:04:53.073Z,30.05
2023-04-21T09:07:34.503Z,30.87
2023-04-21T09:10:05.304Z,31.02
2023-04-21T09:12:35.339Z,30.59
2023-04-21T09:15:07.479Z,30.60
2023-04-21T09:17:37.566Z,31.06
2023-04-21T09:20:24.955Z,31.38
2023-04-21T09:22:54.120Z,31.32
2023-04-21T09:25:23.460Z,31.89
2023-04-21T09:27:55.132Z,31.67
2023-04-21T09:30:24.033Z,32.27
2023-04-21T09:32:58.749Z,32.15
2023-04-21T09:35:40.099Z,31.93
2023-04-21T09:38:13.574Z,32.15
2023-04-21T09:40:42.646Z,32.17
2023-04-21T09:43:12.395Z,32.09
2023-04-21T09:45:41.831Z,32.49
2023-04-21T09:48:12.483Z,33.06
2023-04-21T09:51:20.103Z,34.06
2023-04-21T09:53:34.014Z,33.89
2023-04-21T09:56:05.075Z,33.99
2023-04-21T09:58:54.190Z,34.62
2023-04-21T10:01:28.761Z,34.50
2023-04-21T10:04:00.104Z,34.12
2023-04-21T10:06:29.494Z,34.24
2023-04-21T10:08:59.582Z,34.06
2023-04-21T10:11:28.660Z,34.06
2023-04-21T10:13:57.688Z,34.01
2023-04-21T10:16:27.117Z,34.01
2023-04-21T10:18:56.196Z,34.06
2023-04-21T10:21:25.210Z,33.83
2023-04-21T10:23:55.089Z,34.25
2023-04-21T10:26:37.027Z,34.53
2023-04-21T10:29:07.696Z,34.55
2023-04-21T10:31:48.609Z,34.77
2023-04-21T10:34:18.930Z,34.40
2023-04-21T10:36:53.645Z,34.85
2023-04-21T10:39:36.431Z,34.75
2023-04-21T10:42:14.732Z,34.71
2023-04-21T10:44:59.003Z,35.16
2023-04-21T10:47:41.878Z,34.83
2023-04-21T10:50:30.907Z,34.61
2023-04-21T10:53:10.139Z,34.65
2023-04-21T10:55:40.324Z,34.72
2023-04-21T10:58:10.430Z,35.16
2023-04-21T11:00:40.776Z,34.69
2023-04-21T11:03:10.146Z,34.95
2023-04-21T11:05:41.330Z,34.98
2023-04-21T11:08:12.015Z,35.39
2023-04-21T11:10:56.473Z,35.48
2023-04-21T11:13:28.161Z,34.82
2023-04-21T11:16:08.912Z,34.80
2023-04-21T11:18:42.867Z,35.43
2023-04-21T11:21:23.588Z,35.44
2023-04-21T11:23:57.399Z,35.31
2023-04-21T11:26:38.827Z,35.27
2023-04-21T11:29:10.426Z,35.09
2023-04-21T11:31:41.289Z,35.73
2023-04-21T11:34:10.208Z,35.14
2023-04-21T11:36:41.595Z,36.01
2023-04-21T11:39:12.639Z,35.63
2023-04-21T11:41:44.008Z,35.58
2023-04-21T11:44:14.054Z,35.52
2023-04-21T11:46:47.471Z,35.96
2023-04-21T11:49:20.209Z,35.58
2023-04-21T11:51:51.367Z,36.03
2023-04-21T11:54:22.589Z,35.69
2023-04-21T11:56:52.815Z,36.40
2023-04-21T11:59:26.317Z,36.08
2023-04-21T12:01:56.723Z,36.13
2023-04-21T12:04:26.593Z,36.53
2023-04-21T12:07:00.071Z,36.38
2023-04-21T12:09:30.390Z,36.79
2023-04-21T12:12:02.377Z,36.96
2023-04-21T12:14:35.386Z,37.16
2023-04-21T12:17:07.781Z,37.09
2023-04-21T12:19:42.493Z,37.14
2023-04-21T12:22:13.762Z,37.79
2023-04-21T12:24:44.688Z,37.81
2023-04-21T12:27:14.115Z,37.50
2023-04-21T12:29:43.280Z,37.55
2023-04-21T12:32:12.285Z,37.53
2023-04-21T12:34:41.278Z,37.60
2023-04-21T12:37:10.261Z,37.98
2023-04-21T12:39:39.071Z,37.91
2023-04-21T12:42:07.998Z,37.61
2023-04-21T12:44:37.092Z,37.78
2023-04-21T12:47:06.069Z,38.15
2023-04-21T12:49:34.993Z,37.82
2023-04-21T12:52:06.200Z,37.73
2023-04-21T12:54:35.205Z,38.21
2023-04-21T12:57:04.122Z,38.12
2023-04-21T12:59:34.836Z,37.81
2023-04-21T13:02:04.407Z,37.83
2023-04-21T13:04:34.187Z,37.79
2023-04-21T13:07:03.259Z,38.22
2023-04-21T13:09:33.180Z,38.55
2023-04-21T13:12:02.631Z,37.97
2023-04-21T13:14:32.315Z,38.65
2023-04-21T13:17:02.580Z,38.25
2023-04-21T13:19:31.936Z,38.54
2023-04-21T13:22:01.355Z,38.92
2023-04-21T13:24:30.461Z,38.50
2023-04-21T13:26:59.992Z,38.48
2023-04-21T13:29:34.700Z,38.92
2023-04-21T13:32:06.780Z,38.63
2023-04-21T13:34:36.924Z,38.75
2023-04-21T13:37:06.580Z,39.28
2023-04-21T13:39:35.501Z,38.58
2023-04-21T13:42:04.599Z,38.77
2023-04-21T13:44:33.964Z,38.74
2023-04-21T13:47:03.124Z,39.03
2023-04-21T13:49:32.611Z,38.95
2023-04-21T13:52:01.777Z,39.06
2023-04-21T13:54:31.223Z,39.63
2023-04-21T13:57:01.866Z,39.28
2023-04-21T13:59:31.188Z,39.27
2023-04-21T14:02:01.267Z,39.42
2023-04-21T14:04:30.538Z,40.01
2023-04-21T14:06:59.537Z,40.11
2023-04-21T14:09:28.911Z,39.86
2023-04-21T14:11:57.789Z,40.26
2023-04-21T14:14:37.760Z,40.03
2023-04-21T14:17:08.692Z,40.04
2023-04-21T14:19:37.554Z,40.30
2023-04-21T14:22:06.475Z,40.64
2023-04-21T14:24:35.263Z,40.54
2023-04-21T14:27:04.378Z,40.53
2023-04-21T14:29:33.689Z,40.43
2023-04-21T14:32:02.807Z,40.67
2023-04-21T14:34:31.862Z,40.83
2023-04-21T14:37:01.267Z,40.53
2023-04-21T14:39:30.246Z,40.86
2023-04-21T14:41:59.106Z,41.01
2023-04-21T14:44:28.003Z,41.07
2023-04-21T14:47:08.489Z,41.20
2023-04-21T14:49:39.971Z,41.10
2023-04-21T14:52:09.062Z,41.13
2023-04-21T14:54:38.082Z,41.20
2023-04-21T14:57:20.061Z,41.41
2023-04-21T14:59:51.987Z,41.47
2023-04-21T15:02:23.053Z,41.34
2023-04-21T15:04:52.477Z,41.47
2023-04-21T15:07:23.974Z,41.26
2023-04-21T15:09:55.875Z,41.57
2023-04-21T15:12:27.017Z,41.25
2023-04-21T15:14:57.387Z,41.10
2023-04-21T15:17:27.188Z,41.58
2023-04-21T15:19:56.157Z,41.38
2023-04-21T15:22:25.644Z,41.38
2023-04-21T15:24:54.859Z,41.42
2023-04-21T15:27:23.852Z,41.84
2023-04-21T15:29:54.593Z,41.74
2023-04-21T15:32:23.568Z,41.81
2023-04-21T15:34:53.259Z,42.03
2023-04-21T15:37:24.958Z,41.84
2023-04-21T15:39:54.458Z,42.03
2023-04-21T15:42:24.975Z,41.91
2023-04-21T15:44:54.272Z,41.97
2023-04-21T15:47:23.684Z,41.84
2023-04-21T15:49:52.600Z,41.70
2023-04-21T15:52:23.808Z,41.88
2023-04-21T15:54:52.727Z,42.02
2023-04-21T15:57:21.783Z,42.02
2023-04-21T15:59:50.733Z,42.19
2023-04-21T16:02:22.184Z,41.98
2023-04-21T16:04:51.404Z,42.44
2023-04-21T16:07:20.903Z,42.07
2023-04-21T16:09:51.133Z,41.91
2023-04-21T16:12:20.216Z,41.72
2023-04-21T16:14:57.795Z,42.07
2023-04-21T16:17:34.299Z,42.38
2023-04-21T16:20:06.746Z,41.89
2023-04-21T16:22:36.009Z,42.17
2023-04-21T16:25:05.542Z,42.13
2023-04-21T16:27:34.399Z,42.33
2023-04-21T16:30:07.416Z,42.23
2023-04-21T16:32:38.079Z,42.19
2023-04-21T16:35:10.531Z,42.05
2023-04-21T16:37:44.659Z,42.48
2023-04-21T16:40:14.648Z,42.38
2023-04-21T16:42:43.929Z,42.33
2023-04-21T16:45:13.051Z,42.56
2023-04-21T16:47:43.195Z,42.98
2023-04-21T16:50:12.427Z,42.50
2023-04-21T16:52:41.480Z,42.43
2023-04-21T16:55:11.092Z,42.99
2023-04-21T16:57:40.057Z,42.79
2023-04-21T17:00:11.426Z,42.79
2023-04-21T17:02:40.781Z,42.83
2023-04-21T17:05:10.335Z,42.96
2023-04-21T17:07:40.238Z,42.69
2023-04-21T17:10:09.781Z,42.83
2023-04-21T17:12:39.588Z,42.58
2023-04-21T17:15:09.020Z,42.49
2023-04-21T17:17:45.355Z,42.75
2023-04-21T17:20:15.791Z,42.94
2023-04-21T17:22:45.088Z,42.53
2023-04-21T17:25:13.953Z,42.85
2023-04-21T17:27:43.716Z,42.99
2023-04-21T17:30:13.422Z,42.70
2023-04-21T17:32:42.611Z,42.82
2023-04-21T17:35:11.507Z,42.86
2023-04-21T17:37:40.553Z,43.36
2023-04-21T17:40:10.180Z,42.99
2023-04-21T17:42:40.070Z,43.01
2023-04-21T17:45:09.384Z,43.34
2023-04-21T17:47:38.246Z,43.35
2023-04-21T17:50:10.428Z,43.61
2023-04-21T17:52:40.665Z,43.60
2023-04-21T17:55:09.739Z,43.53
2023-04-21T17:57:38.423Z,43.64
2023-04-21T18:00:09.411Z,43.49
2023-04-21T18:02:38.504Z,43.71
2023-04-21T18:05:07.854Z,43.84
2023-04-21T18:07:37.024Z,43.94
2023-04-21T18:10:06.238Z,44.00
2023-04-21T18:12:35.085Z,44.16
2023-04-21T18:15:04.178Z,44.00
2023-04-21T18:17:35.001Z,44.21
2023-04-21T18:20:05.322Z,43.85
2023-04-21T18:22:34.962Z,43.79
2023-04-21T18:25:04.034Z,44.21
2023-04-21T18:27:33.447Z,43.65
2023-04-21T18:30:02.270Z,43.81
2023-04-21T18:32:35.361Z,43.90
2023-04-21T18:35:06.386Z,43.65
2023-04-21T18:37:35.388Z,43.85
2023-04-21T18:40:06.186Z,43.93
2023-04-21T18:42:35.292Z,44.07
2023-04-21T18:45:04.743Z,44.19
2023-04-21T18:47:35.446Z,44.37
2023-04-21T18:50:07.102Z,44.60
2023-04-21T18:52:35.897Z,44.56
2023-04-21T18:55:05.045Z,45.01
2023-04-21T18:57:34.011Z,44.88
2023-04-21T19:00:03.018Z,44.82
2023-04-21T19:02:35.144Z,44.96
2023-04-21T19:05:04.436Z,45.04
2023-04-21T19:07:36.501Z,45.00
2023-04-21T19:10:06.399Z,45.06
2023-04-21T19:12:35.305Z,44.89
2023-04-21T19:15:04.755Z,45.18
2023-04-21T19:17:34.261Z,45.21
2023-04-21T19:20:03.361Z,45.43
2023-04-21T19:22:36.674Z,45.52
2023-04-21T19:25:06.731Z,45.12
2023-04-21T19:27:36.359Z,45.51
2023-04-21T19:30:06.386Z,45.60
2023-04-21T19:32:35.951Z,45.70
2023-04-21T19:35:05.070Z,45.81
2023-04-21T19:37:35.285Z,45.64
2023-04-21T19:40:06.964Z,46.08
2023-04-21T19:42:40.222Z,45.92
2023-04-21T19:45:11.610Z,46.05
2023-04-21T19:47:40.524Z,46.05
2023-04-21T19:50:10.457Z,45.94
2023-04-21T19:52:39.276Z,46.01
2023-04-21T19:55:08.357Z,46.50
2023-04-21T19:57:38.036Z,46.43
2023-04-21T20:00:09.966Z,46.19
2023-04-21T20:02:42.905Z,46.65
2023-04-21T20:05:12.084Z,46.70
2023-04-21T20:07:41.131Z,46.60
2023-04-21T20:10:10.637Z,47.04
2023-04-21T20:12:39.441Z,47.06
2023-04-21T20:15:12.167Z,48.58
2023-04-21T20:17:42.458Z,48.32
2023-04-21T20:20:11.593Z,48.16
2023-04-21T20:22:41.107Z,47.85
2023-04-21T20:25:11.393Z,48.22
2023-04-21T20:27:40.385Z,48.98
2023-04-21T20:30:10.127Z,48.86
2023-04-21T20:32:38.947Z,49.54
2023-04-21T20:35:08.710Z,49.27
2023-04-21T20:37:37.967Z,49.19
2023-04-21T20:40:12.172Z,49.58
2023-04-21T20:42:45.487Z,49.55
2023-04-21T20:45:14.313Z,49.32
2023-04-21T20:47:43.307Z,49.19
2023-04-21T20:50:12.365Z,48.87
2023-04-21T20:52:41.193Z,49.29
2023-04-21T20:55:10.523Z,49.20
2023-04-21T20:57:39.745Z,49.10
2023-04-21T21:00:12.965Z,49.74
2023-04-21T21:02:44.854Z,49.15
2023-04-21T21:05:13.882Z,49.29
2023-04-21T21:07:42.902Z,49.57
2023-04-21T21:10:12.076Z,49.43
2023-04-21T21:12:40.939Z,49.92
2023-04-21T21:15:10.297Z,49.48
2023-04-21T21:17:40.240Z,49.47
2023-04-21T21:20:09.568Z,49.69
2023-04-21T21:22:38.564Z,50.13
2023-04-21T21:25:07.675Z,50.41
2023-04-21T21:27:36.586Z,50.43
2023-04-21T21:30:06.303Z,50.08
2023-04-21T21:32:36.409Z,50.18
2023-04-21T21:35:07.000Z,49.98
2023-04-21T21:37:36.676Z,49.98
2023-04-21T21:40:06.870Z,49.84
2023-04-21T21:42:35.587Z,49.86
2023-04-21T21:45:05.275Z,49.86
2023-04-21T21:47:39.519Z,49.91
2023-04-21T21:50:13.127Z,50.01
2023-04-21T21:52:43.109Z,50.00
2023-04-21T21:55:11.827Z,49.92
2023-04-21T21:57:41.195Z,49.95
2023-04-21T22:00:14.641Z,50.07
2023-04-21T22:02:43.988Z,50.16
2023-04-21T22:05:14.354Z,49.91
2023-04-21T22:07:43.496Z,50.15
2023-04-21T22:10:12.377Z,50.36
2023-04-21T22:12:41.762Z,50.16
2023-04-21T22:15:11.228Z,50.33
2023-04-21T22:17:40.261Z,50.26
2023-04-21T22:20:10.110Z,50.46
2023-04-21T22:22:38.905Z,50.62
2023-04-21T22:25:08.529Z,50.22
2023-04-21T22:27:37.353Z,50.67
2023-04-21T22:30:07.212Z,50.56
2023-04-21T22:32:36.280Z,50.48
2023-04-21T22:35:05.590Z,50.37
2023-04-21T22:37:35.448Z,50.07
2023-04-21T22:40:05.021Z,50.48
2023-04-21T22:42:33.927Z,50.23
2023-04-21T22:45:04.552Z,49.98
2023-04-21T22:47:35.285Z,50.10
2023-04-21T22:50:04.975Z,49.99
2023-04-21T22:52:33.788Z,50.21
2023-04-21T22:55:06.183Z,50.49
2023-04-21T22:57:38.009Z,50.68
2023-04-21T23:00:11.907Z,50.88
2023-04-21T23:02:42.655Z,51.17
2023-04-21T23:05:12.084Z,51.22
2023-04-21T23:07:40.913Z,51.30
2023-04-21T23:10:10.198Z,51.28
2023-04-21T23:12:39.147Z,52.02
2023-04-21T23:15:08.467Z,52.25
2023-04-21T23:17:37.970Z,53.03
2023-04-21T23:20:07.487Z,53.07
2023-04-21T23:22:36.263Z,52.79
2023-04-21T23:25:05.409Z,52.88
2023-04-21T23:27:34.413Z,53.21
2023-04-21T23:30:03.443Z,53.38
2023-04-21T23:32:33.548Z,54.47
2023-04-21T23:35:02.570Z,54.09
2023-04-21T23:37:32.312Z,54.37
2023-04-21T23:40:01.911Z,54.51
2023-04-21T23:42:32.661Z,54.21
2023-04-21T23:45:02.689Z,54.26
2023-04-21T23:47:33.089Z,54.17
2023-04-21T23:50:02.081Z,54.38
2023-04-21T23:52:32.559Z,54.59
2023-04-21T23:55:01.812Z,55.03
2023-04-21T23:57:32.910Z,55.08
